Tiempo atmosférico en la estación meteorológica de Villalón De Campos, Valladolid (763 m.)



Fecha
DESCASC
Temp. máxima en grados centígrados (hora)
DESCASC
Temp. mínima en grados centígrados (hora)
DESCASC
Temp. media en grados centígrados
DESCASC
Racha de viento máxima en m/sg (hora)
DESCASC
Velocidad máxima media en intervalos de 10 minutos(hora)
DESCASC
Precipitaciones diarias en mm
DESCASC
Precipitaciones de 00:00 a 06:00 en mm
DESCASC
Precipitaciones de 06:00 a 12:00 en mm
DESCASC
Precipitaciones de 12:00 a 18:00 en mm
DESCASC
Precipitaciones de 18:00 a 24:00 en mm
DESCASC
23-06-2019 26.6 (12:20) 14.4 (03:40) 20.5 14.72 (13:10) 8.89 (12:50) 0 0 0 0 0
22-06-2019 30.7 (19:10) 10 (07:10) 20.4 10.83 (19:30) 6.67 (19:30) 0 0 0 0 0
21-06-2019 23.8 (18:20) 10.1 (07:00) 16.9 9.72 (00:10) 4.17 (00:10) 0 0 0 0 0
20-06-2019 26.4 (18:00) 11.1 (00:00) 18.8 9.17 (23:59) 5.28 (23:59) 32.4 0 0 0 32.4
19-06-2019 -- (--) -- (--) -- -- (--) -- (--) -- 0 0 -- 0
18-06-2019 27.2 (14:40) 9.9 (00:00) 18.6 16.94 (14:10) 12.22 (18:40) 0 0 0 0 0
17-06-2019 29.5 (15:40) 9.4 (00:00) 19.4 11.39 (15:20) 7.22 (17:00) 0 0 0 0 0
16-06-2019 28.2 (17:40) 8.6 (00:00) 18.4 8.06 (18:30) 5.83 (18:40) 0 0 0 0 0
15-06-2019 24.2 (20:00) 7.5 (00:00) 15.9 7.78 (15:10) 5.56 (00:20) 0 0 0 0 0
14-06-2019 23.9 (17:10) 6.6 (00:00) 15.2 14.72 (19:10) 8.89 (17:30) 0 0 0 0 0
13-06-2019 24 (18:30) 5.1 (00:00) 14.5 11.39 (19:20) 8.06 (19:20) 0 0 0 0 0
12-06-2019 21.5 (19:20) 2 (00:00) 11.8 7.22 (15:10) 4.72 (09:10) 0 0 0 0 0
11-06-2019 17.4 (16:20) 5.8 (00:00) 11.6 10.83 (12:50) 6.67 (13:20) 0 0 0 0 0
10-06-2019 21.4 (16:20) 6.2 (00:00) 13.8 8.89 (20:20) 6.67 (20:40) 0 0 0 0 0
09-06-2019 24.6 (17:50) 6.3 (00:00) 15.5 14.72 (19:50) 9.44 (19:50) 4.2 0 0 0 4.2
08-06-2019 25 (18:30) 4.7 (00:00) 14.8 8.89 (23:00) 3.89 (23:00) 0 0 0 0 0
07-06-2019 18.4 (17:30) 5.6 (00:00) 12 15 (03:10) 9.72 (04:10) 0 0 0 0 0
06-06-2019 21.5 (16:30) 2.8 (00:00) 12.1 18.06 (19:20) 13.33 (19:20) 3.8 0 0 0 3.8
05-06-2019 17.9 (17:20) 7.9 (00:00) 12.9 13.89 (11:10) 8.06 (19:40) 0.6 0.6 0 0 0
04-06-2019 22.8 (14:30) 10.9 (00:00) 16.8 15 (12:10) 10.28 (18:10) 0 0 0 0 0
03-06-2019 30.1 (17:20) 13.1 (00:00) 21.6 16.11 (18:10) 9.17 (18:10) 0 0 0 0 0
02-06-2019 31.7 (15:40) 12.2 (00:00) 22 13.89 (15:20) 9.72 (16:00) 0 0 0 0 0
01-06-2019 33.6 (18:20) 10.5 (00:00) 22 10.83 (14:40) 5 (17:40) 0 0 0 0 0
31-05-2019 32.6 (19:00) 12 (00:00) 22.3 6.39 (01:10) 3.33 (00:50) 0 0 0 0 0
30-05-2019 29.6 (19:10) 8.1 (00:00) 18.9 7.5 (17:00) 3.89 (17:00) 0 0 0 0 0
29-05-2019 24.7 (18:30) 5.5 (00:00) 15.1 8.33 (19:30) 4.17 (18:40) 0 0 0 0 0
28-05-2019 22.1 (16:40) 6.3 (00:00) 14.2 10.56 (16:30) 6.11 (17:00) 0 0 0 0 0
27-05-2019 25.3 (17:50) 8 (00:00) 16.6 10 (20:30) 5 (18:30) 0 0 0 0 0
26-05-2019 27.8 (19:20) 4.3 (00:00) 16 8.06 (20:00) 4.17 (20:30) 0 0 0 0 0

Gráficas

Temp. máximas Temp. mínimas Temp. medias Precipitaciones Rachas de viento máximas Velocidades máximas media en intervalos de 10 minutos

Datos horarios

Fecha y hora oficial Temperatura (ºC) Velocidad del viento (km/h) Dirección del viento Racha (km/h) Dirección de racha Precipitación (mm) Presión (hPa) Tendencia (hPa) Humedad (%)
2019-06-24 23:00:00 14.7 6 Oeste 16 Sudoeste 0.4 -- -- 95
2019-06-24 22:00:00 14.6 5 Sur 15 Sudoeste 3.2 -- -- 96
2019-06-24 21:00:00 15.1 9 Oeste 14 Oeste 0.6 -- -- 90
2019-06-24 20:00:00 16.4 11 Noroeste 29 Noroeste 0 -- -- 78
2019-06-24 19:00:00 18.2 18 Oeste 28 Noroeste 0 -- -- 68
2019-06-24 18:00:00 19.5 18 Noroeste 33 Oeste 0 -- -- 63
2019-06-24 17:00:00 20.3 24 Noroeste 36 Noroeste 0 -- -- 57
2019-06-24 16:00:00 20.8 19 Noroeste 33 Noroeste 0 -- -- 53
2019-06-24 15:00:00 21.7 17 Noroeste 31 Noroeste 0 -- -- 53
2019-06-24 14:00:00 21 18 Noroeste 28 Noroeste 0 -- -- 57
2019-06-24 13:00:00 20.8 16 Noroeste 26 Oeste 0 -- -- 63
2019-06-24 12:00:00 21.4 6 Noroeste 18 Oeste 0 -- -- 62
2019-06-24 11:00:00 21 6 Noroeste 12 Noroeste 0 -- -- 62
2019-06-24 10:00:00 18.8 5 Noroeste 12 Noroeste 0 -- -- 62
2019-06-24 09:00:00 16.7 7 Noroeste 10 Noroeste 0 -- -- 78
2019-06-24 08:00:00 15.8 2 Sudeste 10 Norte 0 -- -- 81
2019-06-24 07:00:00 15.2 3 Noroeste 9 Oeste 0 -- -- 87
2019-06-24 06:00:00 15.1 3 Oeste 5 Oeste 0 -- -- 87
2019-06-24 05:00:00 15 3 Sur 7 Nordeste 0 -- -- 86
2019-06-24 04:00:00 15.6 6 Oeste 12 Sudoeste 0 -- -- 82
2019-06-24 03:00:00 16.2 6 Norte 13 Norte 0 -- -- 79
2019-06-24 02:00:00 16.1 5 Noroeste 9 Noroeste 0 -- -- 84
2019-06-24 01:00:00 16.4 4 Noroeste 14 Noroeste 0 -- -- 81
2019-06-24 00:00:00 17.5 7 Noroeste 10 Oeste 0 -- -- 70
2019-06-23 23:00:00 18.5 2 Noroeste 8 Sur 0 -- -- 65
2019-06-23 22:00:00 20.8 5 Sur 8 Sur 0 -- -- 45
2019-06-23 21:00:00 22.4 3 Sur 11 Oeste 0 -- -- 41
2019-06-23 20:00:00 22.6 10 Oeste 16 Oeste 0 -- -- 41
2019-06-23 19:00:00 23.1 14 Oeste 23 Oeste 0 -- -- 35
2019-06-23 18:00:00 24 14 Oeste 23 Sudoeste 0 -- -- 31
2019-06-23 17:00:00 25 18 Sudoeste 36 Oeste 0 -- -- 27
2019-06-23 16:00:00 25.4 18 Oeste 27 Oeste 0 -- -- 28
2019-06-23 15:00:00 25.3 18 Sudoeste 31 Sudoeste 0 -- -- 30
2019-06-23 14:00:00 24.3 21 Sudoeste 53 Sudoeste 0 -- -- 30
2019-06-23 13:00:00 24.7 31 Sudoeste 43 Sudoeste 0 -- -- 31
2019-06-23 12:00:00 25.1 18 Sur 28 Sur 0 -- -- 31
2019-06-23 11:00:00 22.7 10 Sur 17 Sur 0 -- -- 38
2019-06-23 10:00:00 20.7 6 Sudeste 12 Sudeste 0 -- -- 47
2019-06-23 09:00:00 21 5 Sudoeste 11 Sudoeste 0 -- -- 45
2019-06-23 08:00:00 15.9 6 Sudoeste 13 Sudoeste 0 -- -- 65
2019-06-23 07:00:00 14.8 9 Sudoeste 18 Sudoeste 0 -- -- 71
2019-06-23 06:00:00 15.1 14 Oeste 20 Sudoeste 0 -- -- 71
2019-06-23 05:00:00 15.6 8 Sudoeste 12 Sudoeste 0 -- -- 69
2019-06-23 04:00:00 15.2 8 Sudoeste 13 Sudoeste 0 -- -- 64
2019-06-23 03:00:00 14.8 0 Calma 5 Sudeste 0 -- -- 75
2019-06-23 02:00:00 15.9 2 Sudoeste 16 Oeste 0 -- -- 60
2019-06-23 01:00:00 16.5 9 Oeste 13 Oeste 0 -- -- 59
2019-06-23 00:00:00 16.9 6 Sudoeste 16 Oeste 0 -- -- 62
2019-06-22 23:00:00 18.7 12 Oeste 15 Oeste 0 -- -- 55
2019-06-22 22:00:00 20.9 12 Oeste 19 Sudoeste 0 -- -- 50
2019-06-22 21:00:00 25.4 14 Oeste 21 Sudoeste 0 -- -- 37
2019-06-22 20:00:00 27.4 16 Sudoeste 39 Sudoeste 0 -- -- 35
2019-06-22 19:00:00 30.4 15 Sudoeste 29 Sudoeste 0 -- -- 29
2019-06-22 18:00:00 29.6 14 Sudoeste 35 Sudoeste 0 -- -- 32
2019-06-22 17:00:00 28.6 18 Sudoeste 30 Sudoeste 0 -- -- 31
2019-06-22 16:00:00 27.3 12 Oeste 29 Sudoeste 0 -- -- 33
2019-06-22 15:00:00 26.7 19 Sudoeste 31 Oeste 0 -- -- 34
2019-06-22 14:00:00 25.4 6 Oeste 14 Sudeste 0 -- -- 41
2019-06-22 13:00:00 24.1 6 Sur 15 Sur 0 -- -- 43
2019-06-22 12:00:00 20.8 5 Sudoeste 13 Sudeste 0 -- -- 49
2019-06-22 11:00:00 17.9 6 Este 15 Este 0 -- -- 62
2019-06-22 10:00:00 15.2 6 Este 14 Nordeste 0 -- -- 72
2019-06-22 09:00:00 13.9 6 Nordeste 13 Nordeste 0 -- -- 76
2019-06-22 08:00:00 11.4 6 Nordeste 13 Este 0 -- -- 85
2019-06-22 07:00:00 10.1 5 Nordeste 14 Este 0 -- -- 91
2019-06-22 06:00:00 10.3 8 Nordeste 18 Nordeste 0 -- -- 91
2019-06-22 05:00:00 10.6 7 Nordeste 19 Este 0 -- -- 90
2019-06-22 04:00:00 11 10 Nordeste 21 Este 0 -- -- 88
2019-06-22 03:00:00 11.7 9 Nordeste 17 Nordeste 0 -- -- 85
2019-06-22 02:00:00 12.3 7 Este 18 Este 0 -- -- 83
2019-06-22 01:00:00 13.7 10 Este 22 Nordeste 0 -- -- 78
2019-06-22 00:00:00 14.7 11 Este 23 Este 0 -- -- 74
2019-06-21 23:00:00 16.1 10 Este 21 Este 0 -- -- 68
2019-06-21 22:00:00 18.5 5 Este 15 Este 0 -- -- 58
2019-06-21 21:00:00 22 6 Este 14 Este 0 -- -- 45
2019-06-21 20:00:00 23.6 6 Sudeste 13 Nordeste 0 -- -- 39
2019-06-21 19:00:00 22.7 9 Este 20 Este 0 -- -- 41
2019-06-21 18:00:00 23.6 4 Sudoeste 17 Este 0 -- -- 42
2019-06-21 17:00:00 22.4 6 Sudeste 17 Este 0 -- -- 43
2019-06-21 16:00:00 21.8 7 Este 19 Este 0 -- -- 45
2019-06-21 15:00:00 19.6 10 Este 23 Este 0 -- -- 54
2019-06-21 14:00:00 18.4 9 Nordeste 21 Nordeste 0 -- -- 57
2019-06-21 13:00:00 18.4 11 Nordeste 27 Nordeste 0 -- -- 60
2019-06-21 12:00:00 17.1 9 Este 21 Este 0 -- -- 69
2019-06-21 11:00:00 16.1 10 Este 20 Nordeste 0 -- -- 71
2019-06-21 10:00:00 14.5 9 Este 18 Nordeste 0 -- -- 79
2019-06-21 09:00:00 13.4 10 Nordeste 17 Nordeste 0 -- -- 86
2019-06-21 08:00:00 11.6 5 Nordeste 12 Nordeste 0 -- -- 95
2019-06-21 07:00:00 10.1 5 Norte 8 Norte 0 -- -- 97
2019-06-21 06:00:00 10.6 6 Norte 9 Norte 0 -- -- 95
2019-06-21 05:00:00 11.2 5 Norte 12 Norte 0 -- -- 94
2019-06-21 04:00:00 11.9 6 Norte 10 Norte 0 -- -- 94
2019-06-21 03:00:00 11.7 6 Norte 16 Nordeste 0 -- -- 95
2019-06-21 02:00:00 12.3 10 Nordeste 22 Este 0 -- -- 94
2019-06-21 01:00:00 12.6 10 Este 35 Este 0 -- -- 94
2019-06-21 00:00:00 12.6 19 Nordeste 33 Este 3.2 -- -- 94
2019-06-20 23:00:00 12.9 15 Nordeste 31 Nordeste 4.6 -- -- 94
2019-06-20 22:00:00 13 13 Nordeste 27 Nordeste 5.6 -- -- 96
2019-06-20 21:00:00 12.9 13 Norte 30 Norte 4.2 -- -- 95
2019-06-20 20:00:00 13.4 10 Norte 30 Nordeste 14.8 -- -- 95
2019-06-20 19:00:00 23.7 11 Este 20 Nordeste 0 -- -- 42
2019-06-20 18:00:00 26.4 6 Sudeste 16 Sudeste 0 -- -- 36
2019-06-20 17:00:00 25.6 9 Sudeste 21 Sudeste 0 -- -- 38
2019-06-20 16:00:00 22.9 8 Nordeste 20 Este 0 -- -- 45
2019-06-20 15:00:00 22.6 10 Norte 19 Nordeste 0 -- -- 46
2019-06-20 14:00:00 21.7 9 Nordeste 19 Nordeste 0 -- -- 49
2019-06-20 13:00:00 21.2 6 Nordeste 24 Este 0 -- -- 53
2019-06-20 12:00:00 19.9 8 Este 19 Este 0 -- -- 57
2019-06-20 11:00:00 18.5 10 Este 22 Este 0 -- -- 63
2019-06-20 10:00:00 16.1 10 Este 21 Nordeste 0 -- -- 73
2019-06-20 09:00:00 14.5 10 Este 20 Nordeste 0 -- -- 78
2019-06-20 08:00:00 12.8 8 Nordeste 14 Nordeste 0 -- -- 84
2019-06-20 07:00:00 11.5 6 Nordeste 13 Nordeste 0 -- -- 88
2019-06-20 06:00:00 11.6 7 Nordeste 13 Nordeste 0 -- -- 88
2019-06-20 05:00:00 11.7 6 Nordeste 12 Nordeste 0 -- -- 87
2019-06-20 04:00:00 12.1 5 Este 13 Este 0 -- -- 85
2019-06-20 03:00:00 13 6 Nordeste 15 Nordeste 0 -- -- 80
2019-06-20 02:00:00 11.7 3 Noroeste 9 Noroeste 0 -- -- 78
2019-06-20 01:00:00 12.2 6 Oeste 16 Noroeste 0 -- -- 72
2019-06-20 00:00:00 13.9 10 Oeste 19 Oeste 0 -- -- 64
2019-06-19 23:00:00 16.8 14 Oeste 19 Oeste 0 -- -- 56
2019-06-19 22:00:00 18.7 13 Oeste 30 Oeste 0 -- -- 52
2019-06-19 21:00:00 21.7 25 Oeste 37 Oeste 0 -- -- 45
2019-06-19 20:00:00 22.7 24 Oeste 40 Sudoeste 0 -- -- 42
2019-06-19 19:00:00 24.1 29 Sudoeste 41 Sudoeste 0 -- -- 42
2019-06-19 18:00:00 23.2 24 Oeste 42 Sudoeste 0 -- -- 42
2019-06-19 17:00:00 23.3 27 Sudoeste 45 Sudoeste 0 -- -- 42
2019-06-19 16:00:00 22 26 Oeste -- -- -- -- -- 49
2019-06-19 15:00:00 22.1 23 Oeste 39 Oeste 0 -- -- 46
2019-06-19 14:00:00 22.7 23 Sudoeste 36 Sudoeste 0 -- -- 50
2019-06-19 13:00:00 21.3 25 Sudoeste 36 Sudoeste 0 -- -- 54
2019-06-19 12:00:00 18.7 18 Sudoeste 33 Sudoeste 0 -- -- 67
2019-06-19 11:00:00 17.2 18 Sudoeste 31 Sudoeste 0 -- -- 74
2019-06-19 10:00:00 17.4 19 Sudoeste 30 Sudoeste 0 -- -- 71
2019-06-19 09:00:00 15.9 18 Sudoeste 24 Sudoeste 0 -- -- 78
2019-06-19 08:00:00 15.3 17 Sudoeste 24 Sudoeste 0 -- -- 82
2019-06-19 07:00:00 13.6 17 Sudoeste 27 Sudoeste 0 -- -- 87
2019-06-19 06:00:00 14 19 Sudoeste 26 Sudoeste 0 -- -- 86
2019-06-19 05:00:00 12.5 10 Sudoeste 22 Sudoeste 0 -- -- 88
2019-06-19 04:00:00 12.7 10 Sudoeste 15 Sudoeste 0 -- -- 88
2019-06-19 03:00:00 13.5 10 Sudoeste 18 Sudoeste 0 -- -- 85
2019-06-19 02:00:00 14.6 9 Sudoeste 17 Sudoeste 0 -- -- 79
2019-06-19 01:00:00 16.3 15 Oeste 27 Oeste 0 -- -- 73
2019-06-19 00:00:00 16.1 12 Oeste 21 Oeste 0 -- -- 71
2019-06-18 23:00:00 16.9 14 Oeste 36 Oeste 0 -- -- 69
2019-06-18 22:00:00 18.5 25 Oeste 37 Oeste 0 -- -- 61
2019-06-18 21:00:00 20.1 31 Oeste 47 Sudoeste 0 -- -- 54
2019-06-18 20:00:00 22.6 36 Sudoeste 54 Sudoeste 0 -- -- 42
2019-06-18 19:00:00 25 42 Sudoeste 59 Sudoeste 0 -- -- 35
2019-06-18 18:00:00 24.6 41 Sudoeste 58 Sudoeste 0 -- -- 41
2019-06-18 17:00:00 25 33 Sudoeste 59 Sudoeste 0 -- -- 38
2019-06-18 16:00:00 26.5 37 Sudoeste 57 Sudoeste 0 -- -- 35
2019-06-18 15:00:00 26.4 34 Sudoeste 61 Sudoeste 0 -- -- 28
2019-06-18 14:00:00 26.4 27 Sur 47 Sudoeste 0 -- -- 24
2019-06-18 13:00:00 26.6 30 Sudoeste 53 Sudoeste 0 -- -- 18
2019-06-18 12:00:00 25.1 28 Sudoeste 44 Sudoeste 0 -- -- 19
2019-06-18 11:00:00 23.6 25 Sudoeste 39 Sudoeste 0 -- -- 28
2019-06-18 10:00:00 21.2 26 Sudoeste 37 Sudoeste 0 -- -- 37
2019-06-18 09:00:00 19.7 16 Sudoeste 22 Sudoeste 0 -- -- 40
2019-06-18 08:00:00 14.3 6 Sudoeste 12 Sudoeste 0 -- -- 50
2019-06-18 07:00:00 10.5 3 Este 6 Este 0 -- -- 59
2019-06-18 06:00:00 10.7 0 Calma 10 Sudeste 0 -- -- 58
2019-06-18 05:00:00 11.4 5 Sudeste 8 Sudeste 0 -- -- 56
2019-06-18 04:00:00 13.3 7 Sudeste 13 Sudeste 0 -- -- 50
2019-06-18 03:00:00 17.3 6 Nordeste 15 Nordeste 0 -- -- 40
2019-06-18 02:00:00 18.8 11 Nordeste 14 Nordeste 0 -- -- 37
2019-06-18 01:00:00 19.6 6 Noroeste 19 Sudoeste 0 -- -- 36
2019-06-18 00:00:00 19.6 12 Sudoeste 22 Sur 0 -- -- 35
2019-06-17 23:00:00 20.4 6 Oeste 27 Noroeste 0 -- -- 34
2019-06-17 22:00:00 20.6 10 Oeste 18 Sudoeste 0 -- -- 33
2019-06-17 21:00:00 22.1 5 Noroeste 28 Noroeste 0 -- -- 30
2019-06-17 20:00:00 23.7 21 Noroeste 31 Oeste 0 -- -- 27
2019-06-17 19:00:00 25.8 22 Oeste 33 Oeste 0 -- -- 22
2019-06-17 18:00:00 27.1 20 Oeste 40 Sudoeste 0 -- -- 18
2019-06-17 17:00:00 28.5 26 Sudoeste 39 Sudoeste 0 -- -- 19
2019-06-17 16:00:00 29 23 Sudoeste 41 Sudoeste 0 -- -- 21
2019-06-17 15:00:00 28.1 17 Sur 40 Sudoeste 0 -- -- 25
2019-06-17 14:00:00 27.8 23 Sudoeste 38 Sur 0 -- -- 25
2019-06-17 13:00:00 27.4 14 Sudoeste 27 Oeste 0 -- -- 28
2019-06-17 12:00:00 25.2 14 Sudoeste 26 Sudoeste 0 -- -- 33
2019-06-17 11:00:00 24 10 Sur 19 Sudoeste 0 -- -- 35
2019-06-17 10:00:00 20.2 8 Sudeste 13 Sudeste 0 -- -- 52
2019-06-17 09:00:00 16.7 5 Este 12 Este 0 -- -- 70
2019-06-17 08:00:00 13.3 3 Sudeste 6 Sudeste 0 -- -- 84
2019-06-17 07:00:00 9.4 0 Calma 9 Sur 0 -- -- 93
2019-06-17 06:00:00 11.6 3 Sudeste 10 Nordeste 0 -- -- 84
2019-06-17 05:00:00 13.4 5 Nordeste 15 Nordeste 0 -- -- 80
2019-06-17 04:00:00 14.1 8 Nordeste 13 Nordeste 0 -- -- 78
2019-06-17 03:00:00 14.4 7 Nordeste 13 Nordeste 0 -- -- 76
2019-06-17 02:00:00 15 6 Nordeste 15 Este 0 -- -- 68
2019-06-17 01:00:00 16.2 9 Nordeste 18 Nordeste 0 -- -- 51
2019-06-17 00:00:00 16.4 10 Noroeste 13 Oeste 0 -- -- 38
2019-06-16 23:00:00 16.6 3 Oeste 5 Oeste 0 -- -- 37
2019-06-16 22:00:00 20.4 2 Noroeste 15 Sudoeste 0 -- -- 32
2019-06-16 21:00:00 25.6 5 Sur 19 Sudoeste 0 -- -- 24
2019-06-16 20:00:00 25.7 12 Sudoeste 24 Sudoeste 0 -- -- 23
2019-06-16 19:00:00 26.2 11 Sudoeste 29 Sudoeste 0 -- -- 21
2019-06-16 18:00:00 27.6 9 Oeste 26 Sudoeste 0 -- -- 22
2019-06-16 17:00:00 26.8 10 Oeste 24 Sudoeste 0 -- -- 22
2019-06-16 16:00:00 27.2 12 Sudoeste 24 Sudoeste 0 -- -- 24
2019-06-16 15:00:00 25.5 8 Noroeste 19 Sur 0 -- -- 26
2019-06-16 14:00:00 25.1 7 Este 21 Sudeste 0 -- -- 27
2019-06-16 13:00:00 23.9 5 Sudeste 18 Sudeste 0 -- -- 30
2019-06-16 12:00:00 22.1 4 Norte 13 Este 0 -- -- 39
2019-06-16 11:00:00 20.2 7 Sudeste 17 Este 0 -- -- 44
2019-06-16 10:00:00 17 10 Este 19 Sudeste 0 -- -- 52
2019-06-16 09:00:00 14.4 6 Este 17 Este 0 -- -- 61
2019-06-16 08:00:00 10.8 8 Nordeste 17 Este 0 -- -- 74
2019-06-16 07:00:00 8.6 7 Nordeste 16 Nordeste 0 -- -- 82
2019-06-16 06:00:00 8.7 8 Nordeste 21 Nordeste 0 -- -- 82
2019-06-16 05:00:00 8.8 8 Nordeste 22 Este 0 -- -- 83
2019-06-16 04:00:00 9.3 10 Nordeste 21 Nordeste 0 -- -- 82
2019-06-16 03:00:00 9.9 8 Nordeste 22 Este 0 -- -- 79
2019-06-16 02:00:00 11 10 Nordeste 19 Este 0 -- -- 76
2019-06-16 01:00:00 12.3 8 Este 23 Sudeste 0 -- -- 72
2019-06-16 00:00:00 13.9 9 Este 25 Nordeste 0 -- -- 65
2019-06-15 23:00:00 15.3 0 Calma 8 Sudeste 0 -- -- 38
2019-06-15 22:00:00 18.6 4 Sudeste 8 Noroeste 0 -- -- 34
2019-06-15 21:00:00 22.6 4 Oeste 13 Sudoeste 0 -- -- 26
2019-06-15 20:00:00 24.2 8 Sur 19 Oeste 0 -- -- 26
2019-06-15 19:00:00 23.4 9 Sudoeste 22 Sudoeste 0 -- -- 26
2019-06-15 18:00:00 23.8 5 Sudoeste 27 Sudoeste 0 -- -- 27
2019-06-15 17:00:00 22.8 13 Sudoeste 27 Sudoeste 0 -- -- 29
2019-06-15 16:00:00 20.9 12 Oeste 28 Oeste 0 -- -- 32
2019-06-15 15:00:00 21 5 Sudeste 22 Oeste 0 -- -- 34
2019-06-15 14:00:00 21.2 6 Sudoeste 19 Sudoeste 0 -- -- 36
2019-06-15 13:00:00 17.3 9 Noroeste 19 Oeste 0 -- -- 44
2019-06-15 12:00:00 16.5 5 Sudoeste 25 Oeste 0 -- -- 48
2019-06-15 11:00:00 16.1 6 Norte 22 Norte 0 -- -- 55
2019-06-15 10:00:00 14.1 6 Norte 15 Norte 0 -- -- 60
2019-06-15 09:00:00 12.5 8 Norte 13 Nordeste 0 -- -- 65
2019-06-15 08:00:00 10.1 7 Norte 10 Norte 0 -- -- 75
2019-06-15 07:00:00 7.5 7 Norte 11 Norte 0 -- -- 82
2019-06-15 06:00:00 8.8 5 Noroeste 10 Noroeste 0 -- -- 77
2019-06-15 05:00:00 9.6 5 Noroeste 16 Oeste 0 -- -- 73
2019-06-15 04:00:00 10.1 12 Oeste 22 Oeste 0 -- -- 70
2019-06-15 03:00:00 9.9 15 Oeste 22 Oeste 0 -- -- 67
2019-06-15 02:00:00 10.1 16 Oeste 22 Oeste 0 -- -- 65
2019-06-15 01:00:00 11.2 15 Oeste 27 Oeste 0 -- -- 61
2019-06-15 00:00:00 13.8 17 Oeste 33 Oeste 0 -- -- 52
2019-06-14 23:00:00 14.9 24 Oeste 39 Sudoeste 0 -- -- 48
2019-06-14 22:00:00 16.2 31 Oeste 48 Sudoeste 0 -- -- 40
2019-06-14 21:00:00 19.1 29 Oeste 41 Sudoeste 0 -- -- 33
2019-06-14 20:00:00 20.4 28 Oeste 53 Sudoeste 0 -- -- 31
2019-06-14 19:00:00 22 28 Sudoeste 48 Sudoeste 0 -- -- 30
2019-06-14 18:00:00 22.7 28 Sudoeste 43 Sudoeste 0 -- -- 29
2019-06-14 17:00:00 23.1 21 Sudoeste 40 Sudoeste 0 -- -- 28
2019-06-14 16:00:00 22.6 20 Sudoeste 39 Sudoeste 0 -- -- 28
2019-06-14 15:00:00 22 20 Oeste 34 Sudoeste 0 -- -- 26
2019-06-14 14:00:00 21.6 12 Sudoeste 33 Sudoeste 0 -- -- 32
2019-06-14 13:00:00 20.8 10 Sur 22 Sudoeste 0 -- -- 39
2019-06-14 12:00:00 18.8 5 Este 11 Sudoeste 0 -- -- 51
2019-06-14 11:00:00 15.7 4 Norte 12 Este 0 -- -- 60
2019-06-14 10:00:00 14 5 Norte 15 Nordeste 0 -- -- 67
2019-06-14 09:00:00 11.4 8 Nordeste 18 Nordeste 0 -- -- 77
2019-06-14 08:00:00 8.9 9 Nordeste 15 Nordeste 0 -- -- 85
2019-06-14 07:00:00 6.7 6 Nordeste 10 Nordeste 0 -- -- 91
2019-06-14 06:00:00 7.1 4 Nordeste 11 Este 0 -- -- 88
2019-06-14 05:00:00 7.8 6 Nordeste 15 Este 0 -- -- 88
2019-06-14 04:00:00 8.1 6 Nordeste 17 Este 0 -- -- 87
2019-06-14 03:00:00 8.6 6 Nordeste 20 Este 0 -- -- 84
2019-06-14 02:00:00 9.2 7 Este 18 Nordeste 0 -- -- 80
2019-06-14 01:00:00 10.4 8 Este 19 Este 0 -- -- 75
2019-06-14 00:00:00 11.7 10 Noroeste 13 Noroeste 0 -- -- 53
2019-06-13 23:00:00 12.5 3 Norte 16 Noroeste 0 -- -- 46
2019-06-13 22:00:00 16.9 14 Oeste 26 Oeste 0 -- -- 35
2019-06-13 21:00:00 19.9 21 Oeste 36 Oeste 0 -- -- 28
2019-06-13 20:00:00 22.2 26 Sudoeste 41 Sudoeste 0 -- -- 23
2019-06-13 19:00:00 23.3 26 Sudoeste 39 Sudoeste 0 -- -- 23
2019-06-13 18:00:00 23.7 24 Sudoeste 40 Oeste 0 -- -- 24
2019-06-13 17:00:00 22.6 25 Oeste 40 Oeste 0 -- -- 26
2019-06-13 16:00:00 22.4 21 Sudoeste 40 Sudoeste 0 -- -- 27
2019-06-13 15:00:00 21.9 12 Sudoeste 37 Sudoeste 0 -- -- 28
2019-06-13 14:00:00 20.8 14 Sudoeste 35 Sudoeste 0 -- -- 30
2019-06-13 13:00:00 20 14 Sudoeste 31 Sur 0 -- -- 35
2019-06-13 12:00:00 18.5 5 Sudoeste 12 Sur 0 -- -- 42
2019-06-13 11:00:00 16.5 7 Sudeste 14 Este 0 -- -- 51
2019-06-13 10:00:00 14.2 5 Este 15 Este 0 -- -- 60
2019-06-13 09:00:00 11.5 6 Este 16 Nordeste 0 -- -- 71
2019-06-13 08:00:00 7.9 7 Nordeste 14 Nordeste 0 -- -- 81
2019-06-13 07:00:00 5.5 8 Nordeste 13 Nordeste 0 -- -- 88
2019-06-13 06:00:00 5.3 5 Norte 9 Norte 0 -- -- 88
2019-06-13 05:00:00 6 5 Norte 13 Nordeste 0 -- -- 85
2019-06-13 04:00:00 7 9 Nordeste 17 Nordeste 0 -- -- 84
2019-06-13 03:00:00 7.8 9 Nordeste 18 Nordeste 0 -- -- 82
2019-06-13 02:00:00 8.7 9 Nordeste 22 Nordeste 0 -- -- 79
2019-06-13 01:00:00 9.5 8 Nordeste 23 Este 0 -- -- 74
2019-06-13 00:00:00 11.4 12 Este 24 Este 0 -- -- 64
2019-06-12 23:00:00 11.6 0 Calma 7 Este 0 -- -- 40
2019-06-12 22:00:00 16.2 3 Este 8 Sudeste 0 -- -- 30
2019-06-12 21:00:00 20.5 4 Sur 18 Sudoeste 0 -- -- 23
2019-06-12 20:00:00 20.1 9 Oeste 19 Sudoeste 0 -- -- 22
2019-06-12 19:00:00 20 8 Noroeste 24 Oeste 0 -- -- 23
2019-06-12 18:00:00 20.2 14 Oeste 24 Sudoeste 0 -- -- 23
2019-06-12 17:00:00 20.4 14 Sudoeste 26 Oeste 0 -- -- 23
2019-06-12 16:00:00 19 11 Sudoeste 26 Oeste 0 -- -- 24
2019-06-12 15:00:00 17.3 13 Noroeste 24 Noroeste 0 -- -- 27
2019-06-12 14:00:00 16.9 6 Sudeste 24 Sudoeste 0 -- -- 34
2019-06-12 13:00:00 15.2 14 Oeste 25 Sudoeste 0 -- -- 35
2019-06-12 12:00:00 14.1 11 Noroeste 18 Noroeste 0 -- -- 38
2019-06-12 11:00:00 12.7 9 Noroeste 20 Norte 0 -- -- 44
2019-06-12 10:00:00 10.9 13 Noroeste 24 Noroeste 0 -- -- 48
2019-06-12 09:00:00 8.4 14 Noroeste 21 Noroeste 0 -- -- 62
2019-06-12 08:00:00 5.4 6 Noroeste 9 Noroeste 0 -- -- 78
2019-06-12 07:00:00 2 4 Oeste 8 Oeste 0 -- -- 83
2019-06-12 06:00:00 2.9 4 Noroeste 7 Noroeste 0 -- -- 83
2019-06-12 05:00:00 3.4 4 Noroeste 11 Noroeste 0 -- -- 82
2019-06-12 04:00:00 3.5 6 Oeste 9 Oeste 0 -- -- 81
2019-06-12 03:00:00 3.9 4 Sudoeste 6 Sudoeste 0 -- -- 74
2019-06-12 02:00:00 4.6 0 Calma 4 Norte 0 -- -- 78
2019-06-12 01:00:00 6.6 5 Norte 12 Norte 0 -- -- 70
2019-06-12 00:00:00 7.7 7 Norte 12 Norte 0 -- -- 66
2019-06-11 23:00:00 9.2 8 Norte 18 Norte 0 -- -- 59
2019-06-11 22:00:00 11.5 12 Norte 26 Norte 0 -- -- 49
2019-06-11 21:00:00 13.9 15 Norte 33 Norte 0 -- -- 43
2019-06-11 20:00:00 15.6 18 Norte 32 Norte 0 -- -- 40
2019-06-11 19:00:00 16.4 20 Norte 35 Norte 0 -- -- 37
2019-06-11 18:00:00 17 20 Norte 34 Noroeste 0 -- -- 36
2019-06-11 17:00:00 16.6 19 Norte 36 Norte 0 -- -- 36
2019-06-11 16:00:00 17.1 18 Norte 35 Noroeste 0 -- -- 35
2019-06-11 15:00:00 16.4 19 Norte 36 Norte 0 -- -- 33
2019-06-11 14:00:00 15.9 20 Norte 37 Norte 0 -- -- 35
2019-06-11 13:00:00 14.9 21 Norte 39 Norte 0 -- -- 39
2019-06-11 12:00:00 13.2 19 Norte 33 Norte 0 -- -- 44
2019-06-11 11:00:00 13 15 Norte 34 Norte 0 -- -- 46
2019-06-11 10:00:00 11.5 18 Norte 33 Noroeste 0 -- -- 55
2019-06-11 09:00:00 10.3 8 Norte 16 Norte 0 -- -- 67
2019-06-11 08:00:00 8.8 7 Norte 10 Norte 0 -- -- 72
2019-06-11 07:00:00 6 2 Oeste 6 Noroeste 0 -- -- 91
2019-06-11 06:00:00 6.3 2 Sudeste 6 Noroeste 0 -- -- 89
2019-06-11 05:00:00 7.7 4 Sudeste 9 Sudeste 0 -- -- 83
2019-06-11 04:00:00 9.3 4 Este 14 Nordeste 0 -- -- 78
2019-06-11 03:00:00 9.6 6 Este 14 Este 0 -- -- 77
2019-06-11 02:00:00 9.7 8 Nordeste 15 Nordeste 0 -- -- 79
2019-06-11 01:00:00 10.7 6 Nordeste 22 Nordeste 0 -- -- 72
2019-06-11 00:00:00 11 13 Nordeste 22 Nordeste 0 -- -- 70
2019-06-10 23:00:00 11.5 14 Nordeste 28 Este 0 -- -- 69
2019-06-10 22:00:00 12.7 15 Nordeste 31 Nordeste 0 -- -- 66
2019-06-10 21:00:00 17.6 17 Norte 32 Norte 0 -- -- 35
2019-06-10 20:00:00 19.6 8 Noroeste 13 Noroeste 0 -- -- 36
2019-06-10 19:00:00 20.1 7 Noroeste 18 Noroeste 0 -- -- 32
2019-06-10 18:00:00 19.3 10 Norte 27 Noroeste 0 -- -- 31
2019-06-10 17:00:00 20.2 8 Noroeste 26 Noroeste 0 -- -- 29
2019-06-10 16:00:00 19.2 10 Noroeste 25 Oeste 0 -- -- 32
2019-06-10 15:00:00 18.3 13 Noroeste 26 Noroeste 0 -- -- 37
2019-06-10 14:00:00 16.8 6 Noroeste 18 Oeste 0 -- -- 45
2019-06-10 13:00:00 15.2 5 Noroeste 16 Noroeste 0 -- -- 55
2019-06-10 12:00:00 13.2 7 Noroeste 15 Oeste 0 -- -- 62
2019-06-10 11:00:00 13.6 3 Oeste 11 Noroeste 0 -- -- 65
2019-06-10 10:00:00 11.8 6 Nordeste 14 Nordeste 0 -- -- 75
2019-06-10 09:00:00 10.2 8 Nordeste 14 Nordeste 0 -- -- 81
2019-06-10 08:00:00 8.3 6 Nordeste 11 Este 0 -- -- 88
2019-06-10 07:00:00 6.2 3 Norte 8 Nordeste 0 -- -- 95
2019-06-10 06:00:00 6.9 5 Nordeste 8 Este 0 -- -- 96
2019-06-10 05:00:00 6.9 4 Norte 7 Este 0 -- -- 95
2019-06-10 04:00:00 7.7 4 Nordeste 10 Nordeste 0 -- -- 93
2019-06-10 03:00:00 8.6 5 Nordeste 14 Nordeste 0 -- -- 89
2019-06-10 02:00:00 8.6 6 Nordeste 10 Este 0 -- -- 91
2019-06-10 01:00:00 9.3 6 Nordeste 12 Nordeste 0 -- -- 90
2019-06-10 00:00:00 9.7 6 Este 17 Nordeste 0 -- -- 90
2019-06-09 23:00:00 10.6 8 Nordeste 31 Este 0 -- -- 86
2019-06-09 22:00:00 11.9 13 Nordeste 31 Nordeste 0 -- -- 79
2019-06-09 21:00:00 14.1 14 Nordeste 28 Este 0.2 -- -- 75
2019-06-09 20:00:00 14.4 26 Norte 53 Noroeste 4 -- -- 62
2019-06-09 19:00:00 21.6 23 Oeste 34 Oeste 0 -- -- 29
2019-06-09 18:00:00 23.1 18 Sudoeste 30 Sudoeste 0 -- -- 27
2019-06-09 17:00:00 23 13 Oeste 26 Sudoeste 0 -- -- 27
2019-06-09 16:00:00 22.4 9 Sudoeste 38 Sudoeste 0 -- -- 33
2019-06-09 15:00:00 22.1 8 Sudoeste 24 Sudoeste 0 -- -- 37
2019-06-09 14:00:00 20.6 13 Oeste 26 Sudoeste 0 -- -- 39
2019-06-09 13:00:00 19.9 16 Sudoeste 25 Sudoeste 0 -- -- 45
2019-06-09 12:00:00 18.3 5 Oeste 14 Oeste 0 -- -- 54
2019-06-09 11:00:00 16.7 4 Oeste 12 Oeste 0 -- -- 61
2019-06-09 10:00:00 15.3 3 Sudeste 12 Este 0 -- -- 67
2019-06-09 09:00:00 12.2 6 Nordeste 11 Norte 0 -- -- 78
2019-06-09 08:00:00 8.9 5 Norte 8 Norte 0 -- -- 88
2019-06-09 07:00:00 6.5 0 Calma 9 Norte 0 -- -- 90
2019-06-09 06:00:00 8.6 5 Nordeste 12 Nordeste 0 -- -- 89
2019-06-09 05:00:00 8.8 8 Nordeste 12 Nordeste 0 -- -- 87
2019-06-09 04:00:00 9.3 6 Nordeste 13 Nordeste 0 -- -- 85
2019-06-09 03:00:00 9.9 4 Norte 20 Nordeste 0 -- -- 82
2019-06-09 02:00:00 10.9 9 Este 25 Nordeste 0 -- -- 79
2019-06-09 01:00:00 11.6 11 Nordeste 26 Nordeste 0 -- -- 77
2019-06-09 00:00:00 13.1 10 Nordeste 29 Nordeste 0 -- -- 72
2019-06-08 23:00:00 15.5 14 Nordeste 32 Este 0 -- -- 64
2019-06-08 22:00:00 18.6 8 Norte 14 Norte 0 -- -- 33
2019-06-08 21:00:00 20.7 9 Noroeste 22 Sudoeste 0 -- -- 28
2019-06-08 20:00:00 22.3 10 Oeste 23 Oeste 0 -- -- 25
2019-06-08 19:00:00 23.1 9 Oeste 26 Sudoeste 0 -- -- 23
2019-06-08 18:00:00 23.8 5 Sur 24 Oeste 0 -- -- 23
2019-06-08 17:00:00 23.4 9 Sudeste 22 Sudeste 0 -- -- 23
2019-06-08 16:00:00 22.8 9 Oeste 21 Sur 0 -- -- 26
2019-06-08 15:00:00 21 6 Este 22 Sur 0 -- -- 29
2019-06-08 14:00:00 20.2 8 Sudeste 21 Sudeste 0 -- -- 32
2019-06-08 13:00:00 19.1 9 Este 19 Este 0 -- -- 37
2019-06-08 12:00:00 17.3 12 Nordeste 23 Este 0 -- -- 42
2019-06-08 11:00:00 15 10 Este 22 Este 0 -- -- 52
2019-06-08 10:00:00 12.6 11 Este 23 Nordeste 0 -- -- 63
2019-06-08 09:00:00 9.8 10 Nordeste 19 Este 0 -- -- 74
2019-06-08 08:00:00 7.4 8 Nordeste 17 Nordeste 0 -- -- 84
2019-06-08 07:00:00 5.3 6 Nordeste 14 Este 0 -- -- 90
2019-06-08 06:00:00 5.8 7 Nordeste 13 Nordeste 0 -- -- 88
2019-06-08 05:00:00 5.9 6 Nordeste 10 Nordeste 0 -- -- 89
2019-06-08 04:00:00 4.9 3 Norte 8 Norte 0 -- -- 86
2019-06-08 03:00:00 6.9 6 Nordeste 18 Nordeste 0 -- -- 77
2019-06-08 02:00:00 6.7 10 Noroeste 15 Noroeste 0 -- -- 77
2019-06-08 01:00:00 6.8 8 Noroeste 12 Noroeste 0 -- -- 77
2019-06-08 00:00:00 7.4 7 Noroeste 14 Noroeste 0 -- -- 74
2019-06-07 23:00:00 9.1 10 Noroeste 24 Noroeste 0 -- -- 65
2019-06-07 22:00:00 11.5 16 Noroeste 27 Noroeste 0 -- -- 53
2019-06-07 21:00:00 15.4 13 Noroeste 40 Noroeste 0 -- -- 43
2019-06-07 20:00:00 17 19 Noroeste 30 Oeste 0 -- -- 39
2019-06-07 19:00:00 17.8 22 Oeste 36 Oeste 0 -- -- 32
2019-06-07 18:00:00 17.5 18 Oeste 36 Sudoeste 0 -- -- 31
2019-06-07 17:00:00 16.4 15 Oeste 31 Oeste 0 -- -- 34
2019-06-07 16:00:00 16.1 14 Oeste 29 Oeste 0 -- -- 35
2019-06-07 15:00:00 16.9 18 Oeste 36 Sudoeste 0 -- -- 36
2019-06-07 14:00:00 15.5 20 Oeste 37 Oeste 0 -- -- 40
2019-06-07 13:00:00 13.7 19 Oeste 35 Oeste 0 -- -- 50
2019-06-07 12:00:00 11.5 17 Oeste 35 Oeste 0 -- -- 58
2019-06-07 11:00:00 10.6 18 Oeste 36 Oeste 0 -- -- 65
2019-06-07 10:00:00 9.5 23 Oeste 35 Sudoeste 0 -- -- 74
2019-06-07 09:00:00 8.8 25 Sudoeste 38 Oeste 0 -- -- 85
2019-06-07 08:00:00 7.1 24 Sudoeste 36 Sudoeste 0 -- -- 88
2019-06-07 07:00:00 5.6 24 Sudoeste 42 Sudoeste 0 -- -- 93
2019-06-07 06:00:00 6.2 27 Sudoeste 41 Sudoeste 0 -- -- 94
2019-06-07 05:00:00 6.5 27 Sudoeste 44 Sudoeste 0 -- -- 92
2019-06-07 04:00:00 6.7 31 Sudoeste 54 Oeste 0 -- -- 91
2019-06-07 03:00:00 6.9 30 Sudoeste 42 Oeste 0 -- -- 91
2019-06-07 02:00:00 7.2 24 Sudoeste 44 Oeste 0 -- -- 91
2019-06-07 01:00:00 8.5 32 Sudoeste 42 Sudoeste 0 -- -- 87
2019-06-07 00:00:00 8.9 25 Sudoeste 44 Sudoeste 0.2 -- -- 88
2019-06-06 23:00:00 8.8 28 Oeste 61 Oeste 1.4 -- -- 90
2019-06-06 22:00:00 10.9 36 Oeste 58 Oeste 1.2 -- -- 88
2019-06-06 21:00:00 12.2 22 Sudoeste 48 Oeste 0.6 -- -- 87
2019-06-06 20:00:00 12.8 32 Oeste 65 Sudoeste 0.4 -- -- 82
2019-06-06 19:00:00 19.2 41 Sudoeste 64 Sudoeste 0 -- -- 38
2019-06-06 18:00:00 21.1 39 Sudoeste 54 Sudoeste 0 -- -- 32
2019-06-06 17:00:00 20 28 Sudoeste 58 Sudoeste 0 -- -- 32
2019-06-06 16:00:00 20.6 29 Sudoeste 50 Sudoeste 0 -- -- 31
2019-06-06 15:00:00 20.5 21 Sur 40 Sur 0 -- -- 32
2019-06-06 14:00:00 17 21 Sur 40 Sudoeste 0 -- -- 39
2019-06-06 13:00:00 16.9 23 Sudoeste 38 Sudoeste 0 -- -- 38
2019-06-06 12:00:00 16.1 22 Sudoeste 39 Sudoeste 0 -- -- 40
2019-06-06 11:00:00 14.5 18 Sudoeste 29 Sudoeste 0 -- -- 42
2019-06-06 10:00:00 13.7 9 Sur 19 Sudoeste 0 -- -- 48
2019-06-06 09:00:00 11.9 4 Sudoeste 8 Sudeste 0 -- -- 55
2019-06-06 08:00:00 7.3 4 Sur 6 Sudoeste 0 -- -- 72
2019-06-06 07:00:00 2.9 2 Noroeste 7 Sudoeste 0 -- -- 83
2019-06-06 06:00:00 4.1 0 Calma 16 Noroeste 0 -- -- 81
2019-06-06 05:00:00 4.9 9 Noroeste 10 Noroeste 0 -- -- 76
2019-06-06 04:00:00 5 0 Calma 5 Oeste 0 -- -- 79
2019-06-06 03:00:00 7 0 Calma 9 Noroeste 0 -- -- 72
2019-06-06 02:00:00 9.2 8 Noroeste 13 Noroeste 0 -- -- 59
2019-06-06 01:00:00 10 9 Noroeste 22 Noroeste 0 -- -- 57
2019-06-06 00:00:00 10.5 13 Noroeste 28 Noroeste 0 -- -- 55
2019-06-05 23:00:00 10.9 21 Noroeste 30 Noroeste 0 -- -- 54
2019-06-05 22:00:00 12.2 15 Noroeste 26 Noroeste 0 -- -- 49
2019-06-05 21:00:00 13.9 17 Noroeste 33 Noroeste 0 -- -- 41
2019-06-05 20:00:00 14.8 19 Oeste 39 Noroeste 0 -- -- 40
2019-06-05 19:00:00 16 23 Oeste 40 Oeste 0 -- -- 38
2019-06-05 18:00:00 16.9 22 Oeste 37 Oeste 0 -- -- 32
2019-06-05 17:00:00 17.5 24 Noroeste 36 Oeste 0 -- -- 32
2019-06-05 16:00:00 16.8 23 Oeste 36 Noroeste 0 -- -- 36
2019-06-05 15:00:00 16.4 24 Oeste 40 Oeste 0 -- -- 37
2019-06-05 14:00:00 16.1 26 Noroeste 41 Oeste 0 -- -- 37
2019-06-05 13:00:00 15 23 Oeste 38 Oeste 0 -- -- 43
2019-06-05 12:00:00 15 21 Noroeste 50 Noroeste 0 -- -- 45
2019-06-05 11:00:00 13.6 23 Noroeste 35 Noroeste 0 -- -- 51
2019-06-05 10:00:00 11.4 20 Noroeste 39 Noroeste 0 -- -- 62
2019-06-05 09:00:00 9.6 23 Noroeste 33 Noroeste 0 -- -- 70
2019-06-05 08:00:00 9.4 25 Noroeste 31 Noroeste 0 -- -- 73
2019-06-05 07:00:00 8 9 Noroeste 21 Oeste 0 -- -- 82
2019-06-05 06:00:00 8.2 9 Oeste 15 Oeste 0 -- -- 82
2019-06-05 05:00:00 8.6 6 Oeste 15 Noroeste 0 -- -- 80
2019-06-05 04:00:00 10.1 3 Nordeste 15 Noroeste 0 -- -- 76
2019-06-05 03:00:00 10.5 8 Noroeste 15 Noroeste 0 -- -- 78
2019-06-05 02:00:00 10.3 10 Noroeste 25 Noroeste 0.2 -- -- 81
2019-06-05 01:00:00 11.6 14 Noroeste 32 Noroeste 0.4 -- -- 71
2019-06-05 00:00:00 13.6 20 Noroeste 30 Noroeste 0 -- -- 55
2019-06-04 23:00:00 14.5 12 Noroeste 27 Oeste 0 -- -- 45
2019-06-04 22:00:00 16.2 17 Oeste 33 Oeste 0 -- -- 45
2019-06-04 21:00:00 17.6 24 Oeste 41 Oeste 0 -- -- 46
2019-06-04 20:00:00 19.4 29 Oeste 40 Oeste 0 -- -- 45
2019-06-04 19:00:00 20.7 28 Oeste 50 Oeste 0 -- -- 45
2019-06-04 18:00:00 21.9 36 Oeste 47 Sudoeste 0 -- -- 46
2019-06-04 17:00:00 22.1 31 Oeste 46 Oeste 0 -- -- 44
2019-06-04 16:00:00 21.8 29 Sudoeste 46 Sudoeste 0 -- -- 43
2019-06-04 15:00:00 22.8 30 Sudoeste 48 Sudoeste 0 -- -- 41
2019-06-04 14:00:00 21.2 26 Sudoeste 49 Sudoeste 0 -- -- 44
2019-06-04 13:00:00 21 24 Sudoeste 54 Sudoeste 0 -- -- 47
2019-06-04 12:00:00 18.6 24 Sudoeste 38 Sudoeste 0 -- -- 55
2019-06-04 11:00:00 16.8 23 Oeste 45 Sudoeste 0 -- -- 57
2019-06-04 10:00:00 15.6 27 Sudoeste 39 Sudoeste 0 -- -- 62
2019-06-04 09:00:00 14 25 Sudoeste 45 Sudoeste 0 -- -- 71
2019-06-04 08:00:00 12.7 24 Sudoeste 33 Sudoeste 0 -- -- 78
2019-06-04 07:00:00 11 20 Sudoeste 28 Sudoeste 0 -- -- 86
2019-06-04 06:00:00 11.8 13 Sudoeste 37 Sudoeste 0 -- -- 84
2019-06-04 05:00:00 13.1 25 Sudoeste 33 Sudoeste 0 -- -- 79
2019-06-04 04:00:00 13.8 17 Sudoeste 27 Sudoeste 0 -- -- 75
2019-06-04 03:00:00 14.6 11 Sudoeste 20 Sudoeste 0 -- -- 75
2019-06-04 02:00:00 16 13 Sudoeste 17 Sudoeste 0 -- -- 69
2019-06-04 01:00:00 17.6 10 Oeste 30 Oeste 0 -- -- 66
2019-06-04 00:00:00 19.5 16 Oeste 21 Oeste 0 -- -- 59
2019-06-03 23:00:00 20.2 13 Oeste 16 Oeste 0 -- -- 51
2019-06-03 22:00:00 22.3 8 Oeste 23 Oeste 0 -- -- 43
2019-06-03 21:00:00 25.5 18 Oeste 44 Oeste 0 -- -- 37
2019-06-03 20:00:00 27 28 Sudoeste 42 Sudoeste 0 -- -- 32
2019-06-03 19:00:00 28.7 29 Sudoeste 58 Sudoeste 0 -- -- 29
2019-06-03 18:00:00 30.1 31 Sudoeste 49 Sudoeste 0 -- -- 27
2019-06-03 17:00:00 29.7 29 Oeste 53 Sudoeste 0 -- -- 28
2019-06-03 16:00:00 29.8 25 Sudoeste 44 Sudoeste 0 -- -- 29
2019-06-03 15:00:00 28.5 25 Sudoeste 37 Sudoeste 0 -- -- 30
2019-06-03 14:00:00 27.8 23 Sudoeste 35 Sudoeste 0 -- -- 33
2019-06-03 13:00:00 26.3 14 Sudoeste 28 Sudoeste 0 -- -- 36
2019-06-03 12:00:00 25.1 9 Sudoeste 22 Sudoeste 0 -- -- 34
2019-06-03 11:00:00 23.6 6 Sudoeste 13 Sudoeste 0 -- -- 35
2019-06-03 10:00:00 19.9 6 Oeste 19 Sudoeste 0 -- -- 42
2019-06-03 09:00:00 18.1 13 Sudoeste 16 Sudoeste 0 -- -- 46
2019-06-03 08:00:00 15.7 10 Sudoeste 15 Oeste 0 -- -- 51
2019-06-03 07:00:00 13.6 13 Sudoeste 17 Sudoeste 0 -- -- 56
2019-06-03 06:00:00 14.3 11 Oeste 21 Oeste 0 -- -- 54
2019-06-03 05:00:00 16.6 15 Oeste 21 Sudoeste 0 -- -- 48
2019-06-03 04:00:00 17 15 Oeste 19 Sudoeste 0 -- -- 47
2019-06-03 03:00:00 17.3 6 Oeste 15 Sudoeste 0 -- -- 42
2019-06-03 02:00:00 18.1 10 Oeste 13 Sudoeste 0 -- -- 38
2019-06-03 01:00:00 17.3 9 Oeste 15 Noroeste 0 -- -- 38
2019-06-03 00:00:00 17.3 9 Oeste 12 Oeste 0 -- -- 39
2019-06-02 23:00:00 19.9 8 Oeste 13 Oeste 0 -- -- 33
2019-06-02 22:00:00 21.7 10 Oeste 19 Noroeste 0 -- -- 29
2019-06-02 21:00:00 25.7 15 Oeste 37 Oeste 0 -- -- 23
2019-06-02 20:00:00 28.3 26 Oeste 44 Oeste 0 -- -- 18
2019-06-02 19:00:00 29.6 33 Oeste 46 Oeste 0 -- -- 16
2019-06-02 18:00:00 29.6 28 Oeste 40 Oeste 0 -- -- 18
2019-06-02 17:00:00 30.3 28 Sudoeste 47 Sudoeste 0 -- -- 18
2019-06-02 16:00:00 30.4 35 Sudoeste 50 Sudoeste 0 -- -- 18
2019-06-02 15:00:00 30 32 Oeste 42 Oeste 0 -- -- 19
2019-06-02 14:00:00 30.5 24 Sudoeste 45 Sudoeste 0 -- -- 18
2019-06-02 13:00:00 29.1 18 Sudoeste 29 Sudoeste 0 -- -- 21
2019-06-02 12:00:00 26.8 13 Oeste 23 Oeste 0 -- -- 31
2019-06-02 11:00:00 24.3 12 Oeste 18 Oeste 0 -- -- 39
2019-06-02 10:00:00 22.1 6 Oeste 10 Sudoeste 0 -- -- 45
2019-06-02 09:00:00 20 5 Sudeste 9 Este 0 -- -- 51
2019-06-02 08:00:00 14.6 3 Nordeste 6 Oeste 0 -- -- 67
2019-06-02 07:00:00 12.3 4 Noroeste 10 Sur 0 -- -- 71
2019-06-02 06:00:00 12.9 0 Calma 6 Norte 0 -- -- 68
2019-06-02 05:00:00 14 2 Norte 6 Nordeste 0 -- -- 67
2019-06-02 04:00:00 13.9 4 Noroeste 5 Noroeste 0 -- -- 67
2019-06-02 03:00:00 16 0 Calma 14 Oeste 0 -- -- 58
2019-06-02 02:00:00 18.6 5 Norte 15 Noroeste 0 -- -- 49
2019-06-02 01:00:00 21.3 14 Noroeste 22 Noroeste 0 -- -- 39
2019-06-02 00:00:00 20.8 14 Noroeste 18 Noroeste 0 -- -- 40
2019-06-01 23:00:00 20.7 10 Oeste 15 Oeste 0 -- -- 36
2019-06-01 22:00:00 23.9 11 Oeste 20 Sudoeste 0 -- -- 32
2019-06-01 21:00:00 30.7 12 Oeste 18 Oeste 0 -- -- 21
2019-06-01 20:00:00 32.3 5 Sudoeste 28 Oeste 0 -- -- 20
2019-06-01 19:00:00 32.6 9 Sudoeste 23 Sudoeste 0 -- -- 20
2019-06-01 18:00:00 32.5 12 Oeste 29 Oeste 0 -- -- 20
2019-06-01 17:00:00 32.3 12 Sudoeste 34 Sudoeste 0 -- -- 19
2019-06-01 16:00:00 31.9 9 Norte 28 Oeste 0 -- -- 19
2019-06-01 15:00:00 31.6 9 Noroeste 39 Sudoeste 0 -- -- 20
2019-06-01 14:00:00 30.8 9 Oeste 20 Oeste 0 -- -- 20
2019-06-01 13:00:00 31.2 4 Sur 12 Noroeste 0 -- -- 24
2019-06-01 12:00:00 28.4 4 Norte 11 Nordeste 0 -- -- 27
2019-06-01 11:00:00 26.1 5 Este 16 Este 0 -- -- 33
2019-06-01 10:00:00 22.8 5 Este 14 Este 0 -- -- 39
2019-06-01 09:00:00 19.8 6 Este 14 Este 0 -- -- 46
2019-06-01 08:00:00 16.5 4 Nordeste 9 Este 0 -- -- 54
2019-06-01 07:00:00 10.5 3 Nordeste 8 Oeste 0 -- -- 69
2019-06-01 06:00:00 12.8 2 Norte 20 Oeste 0 -- -- 62
2019-06-01 05:00:00 14.9 6 Nordeste 10 Este 0 -- -- 56
2019-06-01 04:00:00 14.5 4 Norte 12 Este 0 -- -- 56
2019-06-01 03:00:00 16.6 5 Nordeste 15 Nordeste 0 -- -- 51
2019-06-01 02:00:00 17.8 7 Nordeste 15 Nordeste 0 -- -- 45
2019-06-01 01:00:00 18.7 8 Nordeste 14 Nordeste 0 -- -- 40
2019-06-01 00:00:00 18.3 7 Nordeste 13 Nordeste 0 -- -- 35
2019-05-31 23:00:00 18.3 2 Noroeste 7 Sudeste 0 -- -- 34
2019-05-31 22:00:00 23.3 5 Sudeste 12 Sudeste 0 -- -- 26
2019-05-31 21:00:00 29.3 7 Sudeste 15 Sudeste 0 -- -- 19
2019-05-31 20:00:00 31.1 8 Este 21 Este 0 -- -- 18
2019-05-31 19:00:00 32.6 4 Sur 14 Este 0 -- -- 18
2019-05-31 18:00:00 31.7 6 Este 16 Nordeste 0 -- -- 17
2019-05-31 17:00:00 30.1 11 Nordeste 20 Norte 0 -- -- 18
2019-05-31 16:00:00 29.9 9 Norte 21 Nordeste 0 -- -- 19
2019-05-31 15:00:00 28.8 7 Norte 17 Noroeste 0 -- -- 23
2019-05-31 14:00:00 28.9 5 Sudeste 19 Nordeste 0 -- -- 22
2019-05-31 13:00:00 27.5 5 Sudeste 17 Nordeste 0 -- -- 27
2019-05-31 12:00:00 26.1 6 Este 16 Nordeste 0 -- -- 30
2019-05-31 11:00:00 23 7 Nordeste 14 Este 0 -- -- 41
2019-05-31 10:00:00 20.3 7 Este 14 Este 0 -- -- 49
2019-05-31 09:00:00 17.6 6 Nordeste 10 Nordeste 0 -- -- 57
2019-05-31 08:00:00 15 4 Nordeste 14 Nordeste 0 -- -- 65
2019-05-31 07:00:00 12 6 Nordeste 12 Nordeste 0 -- -- 77
2019-05-31 06:00:00 12.4 8 Nordeste 13 Nordeste 0 -- -- 77
2019-05-31 05:00:00 13.6 7 Nordeste 13 Nordeste 0 -- -- 73
2019-05-31 04:00:00 14.6 8 Nordeste 18 Este 0 -- -- 70
2019-05-31 03:00:00 15.5 8 Nordeste 17 Este 0 -- -- 68
2019-05-31 02:00:00 16.5 7 Nordeste 23 Este 0 -- -- 66
2019-05-31 01:00:00 18 11 Nordeste 21 Este 0 -- -- 63
2019-05-31 00:00:00 19.1 12 Nordeste 22 Este 0 -- -- 56
2019-05-30 23:00:00 19.8 7 Nordeste 13 Este 0 -- -- 47
2019-05-30 22:00:00 22.2 5 Este 18 Este 0 -- -- 40
2019-05-30 21:00:00 26.8 10 Este 22 Este 0 -- -- 29
2019-05-30 20:00:00 28.8 8 Este 22 Nordeste 0 -- -- 28
2019-05-30 19:00:00 28.7 9 Nordeste 26 Nordeste 0 -- -- 27
2019-05-30 18:00:00 28.7 6 Nordeste 24 Este 0 -- -- 26
2019-05-30 17:00:00 27.9 14 Nordeste 27 Nordeste 0 -- -- 26
2019-05-30 16:00:00 28 8 Nordeste 19 Nordeste 0 -- -- 27
2019-05-30 15:00:00 26.5 11 Este 21 Este 0 -- -- 28
2019-05-30 14:00:00 27.6 6 Sudeste 15 Este 0 -- -- 30
2019-05-30 13:00:00 24.7 5 Este 17 Sudeste 0 -- -- 33
2019-05-30 12:00:00 22 6 Este 19 Este 0 -- -- 41
2019-05-30 11:00:00 19.3 10 Nordeste 17 Nordeste 0 -- -- 49
2019-05-30 10:00:00 17.9 6 Este 14 Nordeste 0 -- -- 52
2019-05-30 09:00:00 14.4 6 Nordeste 10 Nordeste 0 -- -- 66
2019-05-30 08:00:00 11.2 4 Norte 6 Norte 0 -- -- 78
2019-05-30 07:00:00 8.4 3 Norte 10 Este 0 -- -- 85
2019-05-30 06:00:00 9.1 5 Nordeste 14 Nordeste 0 -- -- 84
2019-05-30 05:00:00 9.5 8 Nordeste 16 Nordeste 0 -- -- 83
2019-05-30 04:00:00 10.1 5 Nordeste 15 Nordeste 0 -- -- 81
2019-05-30 03:00:00 10.8 3 Nordeste 9 Nordeste 0 -- -- 77
2019-05-30 02:00:00 11.6 5 Este 14 Este 0 -- -- 73
2019-05-30 01:00:00 12.9 6 Este 12 Este 0 -- -- 67
2019-05-30 00:00:00 14.1 6 Sudeste 22 Este 0 -- -- 60
2019-05-29 23:00:00 15.5 10 Este 22 Este 0 -- -- 53
2019-05-29 22:00:00 17.5 12 Este 24 Este 0 -- -- 48
2019-05-29 21:00:00 20.9 11 Este 26 Sudeste 0 -- -- 42
2019-05-29 20:00:00 22.8 12 Este 30 Este 0 -- -- 39
2019-05-29 19:00:00 24.5 9 Este 26 Sudeste 0 -- -- 36
2019-05-29 18:00:00 23.9 10 Norte 25 Este 0 -- -- 35
2019-05-29 17:00:00 23.4 10 Nordeste 26 Nordeste 0 -- -- 35
2019-05-29 16:00:00 22.2 10 Nordeste 22 Nordeste 0 -- -- 37
2019-05-29 15:00:00 21.1 8 Nordeste 27 Nordeste 0 -- -- 38
2019-05-29 14:00:00 19.6 9 Nordeste 19 Nordeste 0 -- -- 41
2019-05-29 13:00:00 18.7 6 Nordeste 15 Nordeste 0 -- -- 42
2019-05-29 12:00:00 16.8 8 Nordeste 18 Sudeste 0 -- -- 46
2019-05-29 11:00:00 16.3 5 Este 15 Este 0 -- -- 50
2019-05-29 10:00:00 14 5 Nordeste 15 Este 0 -- -- 54
2019-05-29 09:00:00 11.8 5 Este 13 Nordeste 0 -- -- 63
2019-05-29 08:00:00 8.8 5 Nordeste 8 Nordeste 0 -- -- 74
2019-05-29 07:00:00 5.9 4 Nordeste 7 Nordeste 0 -- -- 82
2019-05-29 06:00:00 5.7 3 Nordeste 12 Este 0 -- -- 81
2019-05-29 05:00:00 6.6 5 Este 11 Este 0 -- -- 80
2019-05-29 04:00:00 7 5 Este 12 Este 0 -- -- 78
2019-05-29 03:00:00 7.4 6 Este 17 Este 0 -- -- 77
2019-05-29 02:00:00 8.1 6 Este 19 Nordeste 0 -- -- 73
2019-05-29 01:00:00 8.9 9 Este 19 Este 0 -- -- 70
2019-05-29 00:00:00 9.8 9 Este 27 Este 0 -- -- 67
2019-05-28 23:00:00 11 8 Nordeste 22 Este 0 -- -- 60
2019-05-28 22:00:00 13 11 Este 35 Este 0 -- -- 52
2019-05-28 21:00:00 16.3 15 Este 31 Este 0 -- -- 44
2019-05-28 20:00:00 19.6 14 Este 36 Nordeste 0 -- -- 40
2019-05-28 19:00:00 21 21 Norte 32 Norte 0 -- -- 32
2019-05-28 18:00:00 21.5 17 Norte 34 Norte 0 -- -- 30
2019-05-28 17:00:00 21.7 22 Norte 38 Norte 0 -- -- 26
2019-05-28 16:00:00 21.9 14 Norte 31 Norte 0 -- -- 29
2019-05-28 15:00:00 20.4 8 Noroeste 24 Nordeste 0 -- -- 31
2019-05-28 14:00:00 18.9 9 Nordeste 23 Nordeste 0 -- -- 34
2019-05-28 13:00:00 17.7 9 Este 18 Norte 0 -- -- 42
2019-05-28 12:00:00 15.3 9 Norte 21 Nordeste 0 -- -- 45
2019-05-28 11:00:00 13.8 9 Nordeste 19 Este 0 -- -- 51
2019-05-28 10:00:00 13 10 Este 22 Este 0 -- -- 55
2019-05-28 09:00:00 10.8 11 Nordeste 23 Este 0 -- -- 68
2019-05-28 08:00:00 8.5 6 Nordeste 13 Este 0 -- -- 77
2019-05-28 07:00:00 6.5 6 Nordeste 10 Nordeste 0 -- -- 85
2019-05-28 06:00:00 6.3 5 Este 9 Este 0 -- -- 86
2019-05-28 05:00:00 7.2 4 Este 12 Este 0 -- -- 83
2019-05-28 04:00:00 7.7 6 Este 14 Este 0 -- -- 82
2019-05-28 03:00:00 8.1 7 Este 14 Este 0 -- -- 82
2019-05-28 02:00:00 8.9 8 Este 15 Este 0 -- -- 83
2019-05-28 01:00:00 9.8 6 Este 19 Nordeste 0 -- -- 82
2019-05-28 00:00:00 10.9 10 Este 26 Este 0 -- -- 78
2019-05-27 23:00:00 12.8 11 Este 28 Este 0 -- -- 72
2019-05-27 22:00:00 15 11 Este 32 Este 0 -- -- 66
2019-05-27 21:00:00 18.4 14 Este 36 Nordeste 0 -- -- 57
2019-05-27 20:00:00 22.3 10 Nordeste 36 Norte 0 -- -- 44
2019-05-27 19:00:00 25.1 12 Nordeste 36 Norte 0 -- -- 33
2019-05-27 18:00:00 24.4 8 Nordeste 28 Este 0 -- -- 35
2019-05-27 17:00:00 24 12 Norte 22 Nordeste 0 -- -- 36
2019-05-27 16:00:00 23.7 10 Norte 26 Noroeste 0 -- -- 37
2019-05-27 15:00:00 23.8 5 Este 17 Norte 0 -- -- 37
2019-05-27 14:00:00 21.6 6 Norte 21 Norte 0 -- -- 46
2019-05-27 13:00:00 21 5 Nordeste 17 Norte 0 -- -- 47
2019-05-27 12:00:00 20.4 4 Este 11 Nordeste 0 -- -- 46
2019-05-27 11:00:00 17.2 5 Noroeste 12 Sudoeste 0 -- -- 54
2019-05-27 10:00:00 16.1 5 Este 15 Sudeste 0 -- -- 57
2019-05-27 09:00:00 13.3 4 Este 12 Nordeste 0 -- -- 67
2019-05-27 08:00:00 9.1 5 Nordeste 9 Este 0 -- -- 83
2019-05-27 07:00:00 8.3 4 Este 9 Nordeste 0 -- -- 85
2019-05-27 06:00:00 8.9 6 Nordeste 11 Este 0 -- -- 82
2019-05-27 05:00:00 9.8 6 Este 12 Este 0 -- -- 80
2019-05-27 04:00:00 10.4 5 Nordeste 13 Este 0 -- -- 78
2019-05-27 03:00:00 10.6 8 Este 15 Este 0 -- -- 77
2019-05-27 02:00:00 11.3 7 Nordeste 17 Este 0 -- -- 75
2019-05-27 01:00:00 12.2 9 Este 18 Nordeste 0 -- -- 69
2019-05-27 00:00:00 13.9 9 Nordeste 24 Nordeste 0 -- -- 62
2019-05-26 23:00:00 15.8 9 Este 22 Este 0 -- -- 54
2019-05-26 22:00:00 18 9 Este 26 Sudeste 0 -- -- 51
2019-05-26 21:00:00 22 13 Este 28 Este 0 -- -- 44
2019-05-26 20:00:00 25.1 14 Este 29 Sudeste 0 -- -- 39
2019-05-26 19:00:00 27.2 6 Este 20 Nordeste 0 -- -- 32
2019-05-26 18:00:00 26.3 7 Este 23 Nordeste 0 -- -- 33
2019-05-26 17:00:00 25.7 9 Norte 23 Norte 0 -- -- 35
2019-05-26 16:00:00 23.9 8 Nordeste 21 Este 0 -- -- 37
2019-05-26 15:00:00 23 6 Sudeste 20 Noroeste 0 -- -- 40
2019-05-26 14:00:00 20.9 8 Nordeste 17 Nordeste 0 -- -- 42
2019-05-26 13:00:00 18.7 8 Norte 16 Sudeste 0 -- -- 47
2019-05-26 12:00:00 16.8 6 Norte 14 Nordeste 0 -- -- 52
2019-05-26 11:00:00 15.7 5 Este 17 Nordeste 0 -- -- 58
2019-05-26 10:00:00 13.4 7 Nordeste 15 Este 0 -- -- 68
2019-05-26 09:00:00 11.6 5 Nordeste 10 Este 0 -- -- 74
2019-05-26 08:00:00 7.8 3 Noroeste 5 Noroeste 0 -- -- 84
2019-05-26 07:00:00 4.3 3 Oeste 5 Oeste 0 -- -- 90
2019-05-26 06:00:00 5.8 0 Calma 8 Este 0 -- -- 86
2019-05-26 05:00:00 6.4 2 Sudeste 14 Este 0 -- -- 88
2019-05-26 04:00:00 6.8 2 Este 11 Este 0 -- -- 86
2019-05-26 03:00:00 7.8 5 Este 13 Este 0 -- -- 82
2019-05-26 02:00:00 8.7 7 Este 17 Este 0 -- -- 78
2019-05-26 01:00:00 9.5 9 Este 22 Nordeste 0 -- -- 72
2019-05-26 00:00:00 11 10 Este 21 Este 0 -- -- 67